Time;durP1;ratioP1;P1;durP2;ratioP2;P2;SDS_P1;SDS_P2;PMS_P1;PMS_P2;Temp;Humidity;BMP_temperature;BMP_pressure;BME280_temperature;BME280_humidity;BME280_pressure;Samples;Min_cycle;Max_cycle;Signal;HPM_P1;HPM_P2
2021/10/31 00:01:27;;;;;;;10.15;7.70;;;11.80;99.90;;;;;;5035451;28;20119;-62
2021/10/31 00:03:53;;;;;;;9.35;6.85;;;11.70;99.90;;;;;;5035458;28;20030;-61
2021/10/31 00:06:18;;;;;;;9.25;6.95;;;11.70;99.90;;;;;;5033726;28;20574;-61
2021/10/31 00:08:44;;;;;;;8.77;7.35;;;11.70;99.90;;;;;;5034720;28;20041;-62
2021/10/31 00:11:10;;;;;;;12.55;7.50;;;11.60;99.90;;;;;;5034967;28;20098;-62
2021/10/31 00:13:36;;;;;;;11.05;6.90;;;11.60;99.90;;;;;;5035089;28;20386;-62
2021/10/31 00:16:02;;;;;;;10.40;7.28;;;11.50;99.90;;;;;;5033484;28;20021;-61
2021/10/31 00:18:28;;;;;;;11.25;7.72;;;11.50;99.90;;;;;;5035136;28;20104;-61
2021/10/31 00:20:53;;;;;;;14.38;8.20;;;11.50;99.90;;;;;;5034697;28;20109;-61
2021/10/31 00:23:19;;;;;;;10.77;7.40;;;11.50;99.90;;;;;;5033323;28;20036;-61
2021/10/31 00:25:44;;;;;;;9.68;6.85;;;11.50;99.90;;;;;;5035038;28;20026;-62
2021/10/31 00:28:10;;;;;;;9.55;7.07;;;11.40;99.90;;;;;;5034701;28;20510;-62
2021/10/31 00:30:35;;;;;;;12.25;7.10;;;11.40;99.90;;;;;;5033740;28;20064;-61
2021/10/31 00:33:01;;;;;;;11.05;8.00;;;11.40;99.90;;;;;;5034601;28;20553;-61
2021/10/31 00:35:27;;;;;;;12.48;7.45;;;11.40;99.90;;;;;;5034826;28;20100;-61
2021/10/31 00:37:52;;;;;;;11.68;6.90;;;11.40;99.90;;;;;;5034430;28;20032;-61
2021/10/31 00:40:18;;;;;;;11.73;7.53;;;11.30;99.90;;;;;;5034247;28;20048;-61
2021/10/31 00:42:43;;;;;;;11.85;7.32;;;11.30;99.90;;;;;;5034581;28;20120;-61
2021/10/31 00:45:09;;;;;;;14.10;7.85;;;11.30;99.90;;;;;;5033710;28;20041;-61
2021/10/31 00:47:34;;;;;;;12.65;8.00;;;11.30;99.90;;;;;;5026444;28;20092;-61
2021/10/31 00:50:00;;;;;;;12.00;7.70;;;11.20;99.90;;;;;;5032195;28;20045;-62
2021/10/31 00:52:27;;;;;;;12.63;8.55;;;11.20;99.90;;;;;;5034983;28;20025;-61
2021/10/31 00:54:54;;;;;;;13.20;7.97;;;11.20;99.90;;;;;;5034413;28;20474;-61
2021/10/31 00:57:20;;;;;;;11.10;7.93;;;11.20;99.90;;;;;;5032500;28;20112;-62
2021/10/31 00:59:46;;;;;;;14.73;8.07;;;11.20;99.90;;;;;;5034178;28;20064;-61
2021/10/31 01:02:14;;;;;;;10.32;7.35;;;11.10;99.90;;;;;;5016447;28;20108;-61
2021/10/31 01:04:44;;;;;;;14.88;7.88;;;11.10;99.90;;;;;;5032739;28;20049;-61
2021/10/31 01:07:57;;;;;;;11.23;7.53;;;11.10;99.90;;;;;;5033665;28;20456;-62
2021/10/31 01:10:41;;;;;;;13.02;8.15;;;11.10;99.90;;;;;;5016541;28;20417;-62
2021/10/31 01:13:32;;;;;;;11.60;8.18;;;11.00;99.90;;;;;;5032212;28;20120;-61
2021/10/31 01:16:16;;;;;;;11.70;8.05;;;11.00;99.90;;;;;;5032812;28;20021;-62
2021/10/31 01:18:53;;;;;;;14.00;8.40;;;11.00;99.90;;;;;;5032089;28;20021;-62
2021/10/31 01:21:37;;;;;;;12.88;8.85;;;11.00;99.90;;;;;;5031766;28;20025;-61
2021/10/31 01:24:03;;;;;;;16.38;8.82;;;10.90;99.90;;;;;;5033204;28;20057;-61
2021/10/31 01:26:40;;;;;;;14.35;8.55;;;10.90;99.90;;;;;;5033110;28;20080;-61
2021/10/31 01:29:32;;;;;;;13.18;8.15;;;10.90;99.90;;;;;;5019189;28;20120;-61
2021/10/31 01:32:31;;;;;;;13.05;7.93;;;10.90;99.90;;;;;;5012105;28;20068;-61
2021/10/31 01:35:08;;;;;;;14.00;8.77;;;10.90;99.90;;;;;;5014997;28;20482;-61
2021/10/31 01:38:06;;;;;;;13.90;8.65;;;10.80;99.90;;;;;;5034196;28;20018;-62
2021/10/31 01:40:43;;;;;;;12.50;7.82;;;10.80;99.90;;;;;;5017056;28;20489;-62
2021/10/31 01:43:39;;;;;;;13.25;7.97;;;10.80;99.90;;;;;;5034409;28;20041;-61
2021/10/31 01:46:04;;;;;;;12.07;7.28;;;10.80;99.90;;;;;;5033692;28;20025;-61
2021/10/31 01:48:46;;;;;;;8.93;7.22;;;10.70;99.90;;;;;;5033684;28;20029;-61
2021/10/31 01:51:23;;;;;;;10.85;6.60;;;10.80;99.90;;;;;;5033572;28;20033;-61
2021/10/31 01:54:19;;;;;;;10.73;7.28;;;10.70;99.90;;;;;;5033879;28;20369;-62
2021/10/31 01:56:50;;;;;;;9.18;6.97;;;10.70;99.90;;;;;;5028533;28;20036;-61
2021/10/31 01:59:29;;;;;;;13.30;7.85;;;10.70;99.90;;;;;;5033492;28;20032;-62
2021/10/31 02:01:57;;;;;;;14.45;8.00;;;10.80;99.90;;;;;;5033670;28;20119;-62
2021/10/31 02:04:25;;;;;;;11.85;7.30;;;10.70;99.90;;;;;;5033492;28;20030;-61
2021/10/31 02:06:52;;;;;;;14.23;7.63;;;10.70;99.90;;;;;;5032842;28;20026;-62
2021/10/31 02:09:28;;;;;;;11.60;7.63;;;10.70;99.90;;;;;;5033229;28;20025;-61
2021/10/31 02:11:55;;;;;;;10.70;6.75;;;10.70;99.90;;;;;;5014981;28;20042;-61
2021/10/31 02:14:22;;;;;;;11.30;7.50;;;10.70;99.90;;;;;;5033491;28;20028;-61
2021/10/31 02:16:48;;;;;;;14.13;7.90;;;10.70;99.90;;;;;;5032935;28;20086;-61
2021/10/31 02:19:21;;;;;;;14.05;7.90;;;10.60;99.90;;;;;;5033252;28;20105;-61
2021/10/31 02:21:50;;;;;;;12.38;6.78;;;10.60;99.90;;;;;;5033222;28;20060;-61
2021/10/31 02:24:16;;;;;;;11.70;7.82;;;10.50;99.90;;;;;;5032953;28;20056;-61
2021/10/31 02:26:42;;;;;;;14.70;8.80;;;10.50;99.90;;;;;;5032874;28;20062;-62
2021/10/31 02:29:08;;;;;;;13.90;8.10;;;10.50;99.90;;;;;;5032770;28;20110;-61
2021/10/31 02:31:36;;;;;;;11.10;7.75;;;10.40;99.90;;;;;;5031715;28;20429;-61
2021/10/31 02:34:05;;;;;;;13.25;7.72;;;10.40;99.90;;;;;;5032758;28;20045;-62
2021/10/31 02:36:31;;;;;;;13.90;7.90;;;10.40;99.90;;;;;;5033061;28;20029;-61
2021/10/31 02:39:01;;;;;;;12.30;7.82;;;10.40;99.90;;;;;;5032659;28;20453;-61
2021/10/31 02:41:27;;;;;;;10.95;8.23;;;10.40;99.90;;;;;;5015111;28;20029;-61
2021/10/31 02:43:53;;;;;;;11.27;8.38;;;10.40;99.90;;;;;;5032683;28;20025;-61
2021/10/31 02:46:18;;;;;;;14.20;8.45;;;10.40;99.90;;;;;;5030199;28;20540;-61
2021/10/31 02:48:44;;;;;;;14.05;8.73;;;10.30;99.90;;;;;;5032465;28;20037;-62
2021/10/31 02:51:26;;;;;;;14.82;10.05;;;10.30;99.90;;;;;;5032638;28;20029;-61
2021/10/31 02:54:09;;;;;;;11.98;8.35;;;10.30;99.90;;;;;;5032457;28;20032;-62
2021/10/31 02:56:41;;;;;;;12.18;8.88;;;10.30;99.90;;;;;;5032693;28;20022;-61
2021/10/31 02:59:29;;;;;;;13.57;9.07;;;10.30;99.90;;;;;;5032443;28;20029;-61
2021/10/31 03:01:58;;;;;;;12.77;8.73;;;10.30;99.90;;;;;;5032179;28;20470;-61
2021/10/31 03:04:26;;;;;;;13.18;9.45;;;10.20;99.90;;;;;;5032435;28;20033;-62
2021/10/31 03:06:54;;;;;;;15.88;9.73;;;10.20;99.90;;;;;;5032382;28;20037;-62
2021/10/31 03:09:20;;;;;;;13.93;9.52;;;10.20;99.90;;;;;;5033001;28;20442;-62
2021/10/31 03:11:45;;;;;;;13.52;9.02;;;10.20;99.90;;;;;;5032318;28;20072;-61
2021/10/31 03:14:11;;;;;;;13.38;9.82;;;10.20;99.90;;;;;;5032145;28;20030;-61
2021/10/31 03:16:36;;;;;;;13.82;9.80;;;10.20;99.90;;;;;;5032242;28;20028;-61
2021/10/31 03:19:02;;;;;;;11.18;9.25;;;10.20;99.90;;;;;;5013501;28;20393;-61
2021/10/31 03:21:28;;;;;;;18.05;10.20;;;10.20;99.90;;;;;;5032123;28;20740;-61
2021/10/31 03:23:53;;;;;;;19.33;10.38;;;10.20;99.90;;;;;;5032074;28;20031;-61
2021/10/31 03:26:19;;;;;;;15.15;10.25;;;10.20;99.90;;;;;;5032200;28;20112;-61
2021/10/31 03:28:44;;;;;;;14.27;10.80;;;10.20;99.90;;;;;;5032452;28;20034;-61
2021/10/31 03:31:10;;;;;;;16.05;10.00;;;10.20;99.90;;;;;;5029574;28;20092;-61
2021/10/31 03:33:35;;;;;;;17.38;11.48;;;10.20;99.90;;;;;;5031943;28;20040;-61
2021/10/31 03:36:01;;;;;;;14.43;11.10;;;10.20;99.90;;;;;;5031939;28;20022;-61
2021/10/31 03:38:28;;;;;;;20.42;11.68;;;10.20;99.90;;;;;;5032023;28;20188;-61
2021/10/31 03:40:53;;;;;;;17.75;11.90;;;10.20;99.90;;;;;;5031978;28;20108;-61
2021/10/31 03:43:20;;;;;;;16.40;11.77;;;10.20;99.90;;;;;;5031865;28;20156;-61
2021/10/31 03:45:46;;;;;;;17.90;11.48;;;10.20;99.90;;;;;;5014362;28;20025;-61
2021/10/31 03:48:11;;;;;;;19.55;12.57;;;10.20;99.90;;;;;;5031597;28;20033;-62
2021/10/31 03:50:37;;;;;;;15.95;11.98;;;10.20;99.90;;;;;;5031908;28;20036;-61
2021/10/31 03:53:02;;;;;;;17.50;11.80;;;10.20;99.90;;;;;;5014155;28;20025;-61
2021/10/31 03:55:28;;;;;;;21.55;12.57;;;10.20;99.90;;;;;;5031923;28;20412;-61
2021/10/31 03:57:56;;;;;;;19.90;11.70;;;10.20;99.90;;;;;;5031610;28;20053;-61
2021/10/31 04:00:22;;;;;;;18.08;12.75;;;10.20;99.90;;;;;;5006322;28;20533;-61
2021/10/31 04:02:47;;;;;;;18.85;11.88;;;10.20;99.90;;;;;;5031668;28;20129;-61
2021/10/31 04:05:13;;;;;;;17.50;12.45;;;10.20;99.90;;;;;;5031617;28;20494;-61
2021/10/31 04:07:39;;;;;;;15.45;12.07;;;10.10;99.90;;;;;;5031774;28;20397;-61
2021/10/31 04:10:06;;;;;;;21.23;13.43;;;10.10;99.90;;;;;;5031655;28;20025;-61
2021/10/31 04:12:33;;;;;;;18.55;12.60;;;10.10;99.90;;;;;;5031472;28;20044;-61
2021/10/31 04:14:58;;;;;;;19.90;12.52;;;10.10;99.90;;;;;;5031880;28;20018;-61
2021/10/31 04:17:24;;;;;;;17.80;12.70;;;10.10;99.90;;;;;;5031737;28;20029;-61
2021/10/31 04:19:49;;;;;;;17.30;12.82;;;10.10;99.90;;;;;;5031465;28;20100;-61
2021/10/31 04:22:15;;;;;;;17.33;13.38;;;10.10;99.90;;;;;;5031625;28;20025;-61
2021/10/31 04:24:40;;;;;;;18.80;13.95;;;10.10;99.90;;;;;;5031713;28;20033;-61
2021/10/31 04:27:06;;;;;;;17.33;13.57;;;10.10;99.90;;;;;;5031481;28;20022;-61
2021/10/31 04:29:32;;;;;;;20.85;12.68;;;10.10;99.90;;;;;;5031702;28;20040;-61
2021/10/31 04:31:58;;;;;;;19.15;13.48;;;10.10;99.90;;;;;;5034461;28;20063;-62
2021/10/31 04:34:23;;;;;;;18.77;13.10;;;10.10;99.90;;;;;;5035106;28;20037;-61
2021/10/31 04:36:50;;;;;;;19.67;13.88;;;10.10;99.90;;;;;;5035063;28;20079;-61
2021/10/31 04:39:16;;;;;;;16.58;12.73;;;10.10;99.90;;;;;;5035121;28;20025;-61
2021/10/31 04:41:45;;;;;;;17.90;13.82;;;10.00;99.90;;;;;;5035002;28;20128;-61
2021/10/31 04:44:10;;;;;;;20.88;13.13;;;10.00;99.90;;;;;;5034924;28;20022;-61
2021/10/31 04:46:36;;;;;;;17.15;13.15;;;10.00;99.90;;;;;;5034966;28;20029;-62
2021/10/31 04:49:02;;;;;;;22.23;14.35;;;10.00;99.90;;;;;;5034583;28;20491;-61
2021/10/31 04:51:28;;;;;;;18.98;13.75;;;10.00;99.90;;;;;;5034913;28;20036;-61
2021/10/31 04:53:53;;;;;;;20.25;13.35;;;10.00;99.90;;;;;;5034811;28;20029;-61
2021/10/31 04:56:22;;;;;;;18.92;14.10;;;10.00;99.90;;;;;;5016932;28;20034;-61
2021/10/31 04:58:52;;;;;;;19.52;14.13;;;10.00;99.90;;;;;;5034413;28;20501;-61
2021/10/31 05:01:18;;;;;;;18.67;14.07;;;10.00;99.90;;;;;;5034403;28;20025;-61
2021/10/31 05:03:44;;;;;;;20.23;14.70;;;10.00;99.90;;;;;;5034533;28;20496;-61
2021/10/31 05:06:10;;;;;;;17.95;14.52;;;10.00;99.90;;;;;;5034368;28;20039;-61
2021/10/31 05:08:35;;;;;;;19.23;13.52;;;10.00;99.90;;;;;;5034397;28;20029;-61
2021/10/31 05:11:01;;;;;;;19.67;14.77;;;10.00;99.90;;;;;;5034282;28;20040;-62
2021/10/31 05:13:26;;;;;;;21.92;15.95;;;10.00;99.90;;;;;;5034344;28;20510;-62
2021/10/31 05:15:52;;;;;;;21.95;15.68;;;9.90;99.90;;;;;;5034359;28;20040;-61
2021/10/31 05:18:17;;;;;;;19.48;14.88;;;10.00;99.90;;;;;;5034276;28;20021;-61
2021/10/31 05:20:43;;;;;;;18.48;13.82;;;9.90;99.90;;;;;;5032981;28;20030;-62
2021/10/31 05:23:09;;;;;;;20.48;14.32;;;9.90;99.90;;;;;;5034205;28;20037;-61
2021/10/31 05:25:34;;;;;;;19.58;14.02;;;9.90;99.90;;;;;;5034101;28;20021;-61
2021/10/31 05:28:00;;;;;;;15.73;13.70;;;9.90;99.90;;;;;;5032906;28;20113;-61
2021/10/31 05:30:25;;;;;;;19.05;15.10;;;9.90;99.90;;;;;;5034086;28;20033;-61
2021/10/31 05:32:52;;;;;;;19.25;14.18;;;9.90;99.90;;;;;;5034003;28;20156;-61
2021/10/31 05:35:17;;;;;;;19.92;13.73;;;9.90;99.90;;;;;;5033950;28;20033;-61
2021/10/31 05:37:47;;;;;;;17.55;13.77;;;9.90;99.90;;;;;;5016188;28;20022;-61
2021/10/31 05:40:16;;;;;;;20.85;14.02;;;9.90;99.90;;;;;;5033771;28;20543;-61
2021/10/31 05:42:42;;;;;;;18.25;14.48;;;9.90;99.90;;;;;;5032790;28;20473;-61
2021/10/31 05:45:09;;;;;;;21.58;14.75;;;9.90;99.90;;;;;;5033830;28;20152;-61
2021/10/31 05:47:37;;;;;;;19.05;14.80;;;9.90;99.90;;;;;;5031220;28;20120;-61
2021/10/31 05:50:05;;;;;;;17.05;14.45;;;9.80;99.90;;;;;;5033712;28;20116;-61
2021/10/31 05:52:31;;;;;;;18.30;14.05;;;9.80;99.90;;;;;;5033471;28;20501;-61
2021/10/31 05:54:59;;;;;;;19.20;15.10;;;9.80;99.90;;;;;;5033636;28;20461;-61
2021/10/31 05:57:24;;;;;;;20.10;14.48;;;9.80;99.90;;;;;;5033830;28;20080;-61
2021/10/31 05:59:49;;;;;;;17.67;13.82;;;9.80;99.90;;;;;;5033548;28;20405;-61
2021/10/31 06:02:15;;;;;;;22.75;15.02;;;9.80;99.90;;;;;;5033472;28;20040;-61
2021/10/31 06:04:44;;;;;;;20.45;14.23;;;9.70;99.90;;;;;;5033354;28;20047;-61
2021/10/31 06:07:10;;;;;;;18.92;13.82;;;9.80;99.90;;;;;;5033405;28;20026;-61
2021/10/31 06:09:36;;;;;;;16.90;14.18;;;9.70;99.90;;;;;;5033364;28;20040;-61
2021/10/31 06:12:03;;;;;;;17.92;13.63;;;9.70;99.90;;;;;;5015437;28;20136;-61
2021/10/31 06:14:29;;;;;;;19.95;13.98;;;9.70;99.90;;;;;;5033467;28;20025;-61
2021/10/31 06:16:55;;;;;;;19.90;15.52;;;9.70;99.90;;;;;;5033139;28;20021;-61
2021/10/31 06:19:20;;;;;;;19.02;14.38;;;9.70;99.90;;;;;;5033258;28;20470;-61
2021/10/31 06:21:46;;;;;;;17.48;14.55;;;9.70;99.90;;;;;;5032899;28;20079;-61
2021/10/31 06:24:12;;;;;;;19.52;15.52;;;9.80;99.90;;;;;;5033294;28;20033;-61
2021/10/31 06:26:37;;;;;;;19.63;15.25;;;9.80;99.90;;;;;;5033090;28;20492;-61
2021/10/31 06:29:03;;;;;;;23.63;14.40;;;9.80;99.90;;;;;;5027423;28;20037;-61
2021/10/31 06:31:28;;;;;;;17.92;15.23;;;9.80;99.90;;;;;;5032856;28;20485;-61
2021/10/31 06:33:54;;;;;;;19.05;15.80;;;9.80;99.90;;;;;;5027476;28;20466;-61
2021/10/31 06:36:19;;;;;;;20.67;14.65;;;9.80;99.90;;;;;;5028019;28;20040;-61
2021/10/31 06:38:45;;;;;;;21.13;15.45;;;9.80;99.90;;;;;;5025785;28;20030;-61
2021/10/31 06:41:10;;;;;;;21.42;16.52;;;9.80;99.90;;;;;;5027332;28;20556;-61
2021/10/31 06:43:36;;;;;;;18.13;14.90;;;9.80;99.90;;;;;;5031555;28;20022;-61
2021/10/31 06:46:02;;;;;;;23.05;16.30;;;9.80;99.90;;;;;;5031784;28;20501;-61
2021/10/31 06:48:28;;;;;;;20.33;15.77;;;9.80;99.90;;;;;;5032439;28;20112;-61
2021/10/31 06:50:55;;;;;;;18.55;16.48;;;9.80;99.90;;;;;;5014143;28;20124;-61
2021/10/31 06:53:22;;;;;;;19.67;16.17;;;9.80;99.90;;;;;;5031972;28;20484;-61
2021/10/31 06:55:47;;;;;;;20.83;16.88;;;9.90;99.90;;;;;;5032002;28;20029;-61
2021/10/31 06:58:13;;;;;;;19.45;16.05;;;9.90;99.90;;;;;;5031970;28;20083;-61
2021/10/31 07:00:39;;;;;;;18.65;16.20;;;9.90;99.90;;;;;;5014589;28;20031;-61
2021/10/31 07:03:04;;;;;;;20.45;16.85;;;9.90;99.90;;;;;;5029631;28;20033;-61
2021/10/31 07:05:30;;;;;;;21.80;16.65;;;9.90;99.90;;;;;;5030829;28;20082;-61
2021/10/31 07:07:56;;;;;;;18.58;15.85;;;9.90;99.90;;;;;;5031559;28;20489;-61
2021/10/31 07:10:21;;;;;;;17.75;15.57;;;10.00;99.90;;;;;;5010761;28;20060;-61
2021/10/31 07:12:47;;;;;;;21.42;16.80;;;10.00;99.90;;;;;;5009508;28;20129;-61
2021/10/31 07:15:12;;;;;;;19.38;15.23;;;10.00;99.90;;;;;;5031528;28;20194;-61
2021/10/31 07:17:39;;;;;;;19.40;15.75;;;10.00;99.90;;;;;;5029905;28;20545;-61
2021/10/31 07:20:06;;;;;;;18.33;15.68;;;10.00;99.90;;;;;;5029950;28;20378;-61
2021/10/31 07:22:31;;;;;;;19.50;15.85;;;10.10;99.90;;;;;;5011979;28;20025;-61
2021/10/31 07:24:59;;;;;;;19.40;15.07;;;10.10;99.90;;;;;;5020610;28;20033;-61
2021/10/31 07:27:24;;;;;;;17.67;15.65;;;10.20;99.90;;;;;;5021291;28;20026;-61
2021/10/31 07:29:50;;;;;;;18.70;15.15;;;10.20;99.90;;;;;;5012200;28;20053;-61
2021/10/31 07:32:39;;;;;;;16.83;14.73;;;10.20;99.90;;;;;;5013731;28;20151;-61
2021/10/31 07:42:54;;;;;;;18.23;14.85;;;10.40;99.90;;;;;;4796351;29;20118;-61
2021/10/31 07:45:19;;;;;;;16.20;13.75;;;10.40;99.90;;;;;;4802137;29;20066;-61
2021/10/31 07:47:45;;;;;;;17.10;14.50;;;10.40;99.90;;;;;;4846636;29;20037;-61
2021/10/31 07:50:11;;;;;;;15.93;14.23;;;10.50;99.90;;;;;;4946829;28;20521;-61
2021/10/31 07:52:42;;;;;;;14.73;13.05;;;10.50;99.90;;;;;;5013378;28;20040;-61
2021/10/31 07:55:10;;;;;;;16.30;13.48;;;10.60;99.90;;;;;;5019546;28;20028;-61
2021/10/31 07:57:35;;;;;;;13.75;12.18;;;10.60;99.90;;;;;;5020661;28;20061;-61
2021/10/31 08:00:01;;;;;;;15.18;13.57;;;10.70;99.90;;;;;;5006198;28;20053;-61
2021/10/31 08:02:27;;;;;;;15.30;13.38;;;10.70;99.90;;;;;;5023667;28;20107;-62
2021/10/31 08:05:25;;;;;;;13.98;12.57;;;10.70;99.90;;;;;;5022756;28;20613;-61
2021/10/31 08:07:51;;;;;;;16.13;13.07;;;10.80;99.90;;;;;;5025509;28;20160;-62
2021/10/31 08:10:17;;;;;;;15.52;12.55;;;10.80;99.90;;;;;;5024807;28;20034;-61
2021/10/31 08:12:43;;;;;;;15.38;12.98;;;10.90;99.90;;;;;;5024316;28;20526;-61
2021/10/31 08:15:09;;;;;;;14.98;13.18;;;10.90;99.90;;;;;;5013985;28;20065;-62
2021/10/31 08:17:35;;;;;;;14.90;12.82;;;10.90;99.90;;;;;;5025491;28;20148;-61
2021/10/31 08:20:01;;;;;;;16.40;12.48;;;11.00;99.90;;;;;;5025293;28;20477;-61
2021/10/31 08:22:26;;;;;;;16.60;11.80;;;11.00;99.90;;;;;;5024561;28;20025;-61
2021/10/31 08:24:52;;;;;;;13.05;11.70;;;11.10;99.90;;;;;;5025941;28;20025;-61
2021/10/31 08:27:18;;;;;;;13.00;11.00;;;11.10;99.90;;;;;;5024922;28;20030;-61
2021/10/31 08:29:45;;;;;;;13.68;11.32;;;11.20;99.90;;;;;;5024942;28;20034;-61
2021/10/31 08:32:12;;;;;;;12.68;11.32;;;11.20;99.90;;;;;;5032271;28;20017;-62
2021/10/31 08:34:38;;;;;;;12.52;11.23;;;11.30;99.90;;;;;;5034928;28;20540;-61
2021/10/31 08:37:38;;;;;;;;;;;;;;;;;;;;;
2021/10/31 08:44:09;;;;;;;13.40;9.50;;;11.50;99.90;;;;;;4972315;28;20035;-61
2021/10/31 08:46:35;;;;;;;11.13;9.65;;;11.60;99.90;;;;;;4952073;28;20125;-61
2021/10/31 08:49:02;;;;;;;11.77;10.38;;;11.60;99.90;;;;;;5031455;28;20630;-62
2021/10/31 08:51:28;;;;;;;17.60;10.43;;;11.70;99.90;;;;;;5035609;28;20095;-61
2021/10/31 08:53:55;;;;;;;10.88;9.77;;;11.70;99.90;;;;;;5032592;28;21248;-61
2021/10/31 08:56:52;;;;;;;;;;;;;;;;;;;;;
2021/10/31 08:59:19;;;;;;;11.10;9.90;;;11.90;99.90;;;;;;5034445;28;20043;-61
2021/10/31 09:02:17;;;;;;;11.38;10.18;;;11.90;99.90;;;;;;5032633;28;20104;-61
2021/10/31 09:04:42;;;;;;;10.57;9.50;;;12.00;99.90;;;;;;5033990;28;20036;-62
2021/10/31 09:07:14;;;;;;;11.27;9.43;;;12.00;99.90;;;;;;5033938;28;20041;-62
2021/10/31 09:09:48;;;;;;;10.63;8.85;;;12.00;99.90;;;;;;5032425;28;20025;-62
2021/10/31 09:12:40;;;;;;;10.80;9.70;;;12.10;99.90;;;;;;5009480;28;20038;-61
2021/10/31 09:15:05;;;;;;;10.95;9.82;;;12.20;99.90;;;;;;4994204;28;20038;-62
2021/10/31 09:17:31;;;;;;;11.50;9.35;;;12.30;99.90;;;;;;5003753;28;20080;-61
2021/10/31 09:19:56;;;;;;;11.38;9.60;;;12.40;99.90;;;;;;5003062;28;20037;-61
2021/10/31 09:22:22;;;;;;;10.68;9.52;;;12.50;99.90;;;;;;5005846;28;20073;-61
2021/10/31 09:24:50;;;;;;;11.15;10.00;;;12.60;99.90;;;;;;5005016;28;20030;-61
2021/10/31 09:27:16;;;;;;;9.98;8.88;;;12.70;99.90;;;;;;5003946;28;20466;-61
2021/10/31 09:29:49;;;;;;;9.48;8.57;;;12.70;99.90;;;;;;5005499;28;20072;-62
2021/10/31 09:32:15;;;;;;;10.13;9.10;;;12.80;99.90;;;;;;5005377;28;20048;-62
2021/10/31 09:34:43;;;;;;;10.90;8.02;;;12.80;99.90;;;;;;4994416;28;20467;-61
2021/10/31 09:37:08;;;;;;;9.55;8.63;;;12.90;99.90;;;;;;5003540;28;20018;-61
2021/10/31 09:39:34;;;;;;;10.30;7.75;;;13.00;99.90;;;;;;5001762;28;20494;-61
2021/10/31 09:49:03;;;;;;;7.78;6.57;;;13.30;99.90;;;;;;4940606;28;20046;-62
2021/10/31 09:54:47;;;;;;;7.32;6.32;;;13.60;99.50;;;;;;4932994;28;20110;-62
2021/10/31 09:57:49;;;;;;;8.43;5.53;;;13.80;99.20;;;;;;4956083;28;20528;-62
2021/10/31 10:00:19;;;;;;;6.88;5.50;;;14.20;98.30;;;;;;4980725;28;20038;-62
2021/10/31 10:03:05;;;;;;;5.70;4.35;;;14.50;97.90;;;;;;5004726;28;20033;-61
2021/10/31 10:05:30;;;;;;;5.88;3.90;;;14.70;97.30;;;;;;5003732;28;20037;-61
2021/10/31 10:08:13;;;;;;;8.38;4.28;;;15.10;96.40;;;;;;5002405;28;20035;-62
2021/10/31 10:10:42;;;;;;;5.30;3.70;;;15.60;95.20;;;;;;5003496;28;20474;-62
2021/10/31 10:13:24;;;;;;;5.47;3.28;;;15.90;93.60;;;;;;5009699;28;20099;-62
2021/10/31 10:15:51;;;;;;;3.28;2.88;;;16.10;93.10;;;;;;5015936;28;20026;-62
2021/10/31 10:18:33;;;;;;;4.13;2.90;;;16.50;92.60;;;;;;5015383;28;20026;-62
2021/10/31 10:21:23;;;;;;;3.58;2.85;;;17.40;91.70;;;;;;5009378;28;20566;-62
2021/10/31 10:23:56;;;;;;;4.47;2.45;;;18.30;87.50;;;;;;5017434;28;20493;-62
2021/10/31 10:26:28;;;;;;;2.95;1.92;;;19.10;83.30;;;;;;4999223;28;20042;-62
2021/10/31 10:29:01;;;;;;;2.78;1.60;;;20.00;80.40;;;;;;5008881;28;20125;-62
2021/10/31 10:31:28;;;;;;;3.63;2.00;;;21.00;75.30;;;;;;5010631;28;20049;-62
2021/10/31 10:34:18;;;;;;;6.03;2.10;;;21.20;72.40;;;;;;5022994;28;20026;-62
2021/10/31 10:36:47;;;;;;;2.67;2.13;;;20.80;70.80;;;;;;5013469;28;20032;-62
2021/10/31 10:39:19;;;;;;;2.88;2.00;;;20.20;73.90;;;;;;5025555;28;20116;-62
2021/10/31 10:41:49;;;;;;;3.08;1.70;;;20.00;73.20;;;;;;5023112;28;20548;-62
2021/10/31 10:44:26;;;;;;;3.53;1.88;;;20.30;75.40;;;;;;5023587;28;20379;-63
2021/10/31 10:47:08;;;;;;;2.40;1.65;;;20.90;72.80;;;;;;5022268;28;20104;-62
2021/10/31 10:49:52;;;;;;;3.53;1.83;;;20.90;70.40;;;;;;5023306;28;20381;-62
2021/10/31 10:52:27;;;;;;;2.47;1.73;;;20.50;72.10;;;;;;5019396;28;20033;-62
2021/10/31 10:54:58;;;;;;;2.42;1.42;;;20.00;71.00;;;;;;5022482;28;20115;-62
2021/10/31 10:57:25;;;;;;;2.70;1.25;;;19.60;74.80;;;;;;5021241;28;20071;-62
2021/10/31 10:59:56;;;;;;;3.20;1.58;;;19.70;74.00;;;;;;5023996;28;20485;-62
2021/10/31 11:02:24;;;;;;;2.20;1.50;;;20.00;72.70;;;;;;5017237;28;20512;-62
2021/10/31 11:04:58;;;;;;;1.67;1.08;;;19.90;72.00;;;;;;5021190;28;20033;-63
2021/10/31 11:07:32;;;;;;;2.70;1.50;;;19.40;72.80;;;;;;5020979;28;20034;-62
2021/10/31 11:10:13;;;;;;;2.00;1.27;;;19.00;75.30;;;;;;5024449;28;20029;-62
2021/10/31 11:12:40;;;;;;;2.38;1.08;;;19.30;75.80;;;;;;5011670;28;20067;-62
2021/10/31 11:15:14;;;;;;;2.70;1.30;;;20.00;73.80;;;;;;5025777;28;20051;-62
2021/10/31 11:17:41;;;;;;;2.15;1.08;;;20.80;70.80;;;;;;5023417;28;20287;-62
2021/10/31 11:20:20;;;;;;;3.13;1.50;;;21.60;68.90;;;;;;5026935;28;20128;-62
2021/10/31 11:22:48;;;;;;;2.80;1.33;;;22.00;65.20;;;;;;5024031;28;20028;-62
2021/10/31 11:25:36;;;;;;;2.67;1.17;;;21.00;65.90;;;;;;5027512;28;20400;-62
2021/10/31 11:28:04;;;;;;;2.15;1.08;;;19.70;70.50;;;;;;5027860;28;20021;-62
2021/10/31 11:30:31;;;;;;;4.78;1.48;;;19.00;74.00;;;;;;5024564;28;20029;-62
2021/10/31 11:32:57;;;;;;;3.70;1.27;;;18.50;75.30;;;;;;5023511;28;20050;-62
2021/10/31 11:35:37;;;;;;;2.78;1.50;;;18.40;76.90;;;;;;5026457;28;20441;-62
2021/10/31 11:38:30;;;;;;;2.28;1.10;;;18.30;77.20;;;;;;5027958;28;20435;-62
2021/10/31 11:41:32;;;;;;;1.77;1.20;;;18.10;78.20;;;;;;5033934;28;20022;-62
2021/10/31 11:44:30;;;;;;;2.58;1.48;;;17.70;79.30;;;;;;5025183;28;20037;-62
2021/10/31 11:46:57;;;;;;;2.60;2.08;;;17.20;81.40;;;;;;5027438;28;20034;-62
2021/10/31 11:49:23;;;;;;;2.63;1.70;;;16.90;83.20;;;;;;5025027;28;20025;-62
2021/10/31 11:51:54;;;;;;;4.32;1.80;;;16.60;84.90;;;;;;5009991;28;20030;-62
2021/10/31 11:54:21;;;;;;;2.75;1.50;;;16.50;85.50;;;;;;5026036;28;20026;-62
2021/10/31 11:56:55;;;;;;;4.93;1.65;;;16.30;86.70;;;;;;5027478;28;20025;-62
2021/10/31 11:59:22;;;;;;;3.30;1.65;;;16.30;87.90;;;;;;5029990;28;20044;-62
2021/10/31 12:01:56;;;;;;;3.20;1.98;;;16.20;88.30;;;;;;5016127;28;20032;-62
2021/10/31 12:08:00;;;;;;;2.67;1.80;;;16.00;89.80;;;;;;5028768;28;20028;-62
2021/10/31 12:10:57;;;;;;;;;;;;;;;;;;;;;
2021/10/31 12:13:47;;;;;;;3.63;1.80;;;15.90;90.80;;;;;;5019895;28;20038;-62
2021/10/31 12:16:14;;;;;;;;;;;15.90;90.70;;;;;;5027198;28;20032;-62
2021/10/31 12:18:52;;;;;;;2.63;1.65;;;15.80;91.00;;;;;;5015718;28;20000;-62
2021/10/31 12:21:38;;;;;;;4.35;2.15;;;15.80;91.20;;;;;;5027746;28;20551;-62
2021/10/31 12:24:17;;;;;;;5.70;2.53;;;15.90;91.40;;;;;;5007390;28;20030;-62
2021/10/31 12:26:48;;;;;;;3.42;1.90;;;15.80;91.60;;;;;;5029418;28;20551;-62
2021/10/31 12:29:16;;;;;;;3.50;2.42;;;15.80;91.70;;;;;;5025056;28;20041;-62
2021/10/31 12:32:19;;;;;;;3.13;2.33;;;15.80;91.90;;;;;;5024783;28;20531;-62
2021/10/31 12:34:51;;;;;;;3.10;2.30;;;15.80;92.10;;;;;;5016089;28;20052;-62
2021/10/31 12:37:32;;;;;;;3.42;2.28;;;15.80;92.20;;;;;;5023419;28;20025;-62
2021/10/31 12:40:14;;;;;;;4.78;2.08;;;15.80;92.70;;;;;;5029730;28;20028;-62
2021/10/31 12:42:58;;;;;;;3.30;2.00;;;16.10;92.40;;;;;;5027363;28;20029;-62
2021/10/31 12:45:29;;;;;;;4.47;2.35;;;16.40;91.90;;;;;;5029353;28;21181;-62
2021/10/31 12:48:08;;;;;;;2.75;1.85;;;16.60;91.50;;;;;;5029525;28;20116;-62
2021/10/31 12:51:24;;;;;;;4.00;1.92;;;16.60;91.60;;;;;;5023388;28;20037;-62
2021/10/31 12:53:51;;;;;;;4.30;2.10;;;16.60;91.50;;;;;;5016629;28;20057;-62
2021/10/31 12:56:20;;;;;;;4.05;1.92;;;16.50;92.00;;;;;;5027244;28;20079;-62
2021/10/31 12:58:45;;;;;;;4.75;2.00;;;16.50;92.10;;;;;;5011984;28;20076;-62
2021/10/31 13:01:17;;;;;;;2.75;1.40;;;16.50;92.00;;;;;;5009551;28;20489;-62
2021/10/31 13:03:42;;;;;;;3.95;1.60;;;16.60;92.00;;;;;;5026898;28;20065;-62
2021/10/31 13:06:08;;;;;;;2.95;1.67;;;16.60;91.90;;;;;;5024988;28;20057;-62
2021/10/31 13:08:33;;;;;;;4.47;1.50;;;16.60;91.90;;;;;;5026971;28;20112;-62
2021/10/31 13:10:59;;;;;;;2.42;1.80;;;16.70;92.20;;;;;;5029888;28;20022;-62
2021/10/31 13:13:26;;;;;;;2.45;1.25;;;17.00;91.90;;;;;;5027302;28;20486;-62
2021/10/31 13:15:53;;;;;;;3.50;1.75;;;17.20;91.40;;;;;;5032773;28;20478;-62
2021/10/31 13:18:20;;;;;;;3.03;1.98;;;17.20;91.40;;;;;;5030001;28;20477;-62
2021/10/31 13:20:50;;;;;;;1.90;1.50;;;17.20;91.40;;;;;;5016127;28;20029;-62
2021/10/31 13:23:20;;;;;;;3.33;1.63;;;17.10;91.50;;;;;;5033237;28;20040;-62